createdAt,value
2022-09-10T00:01:59.798Z,7.68
2022-09-10T00:04:27.669Z,6.57
2022-09-10T00:06:55.376Z,13.43
2022-09-10T00:09:22.130Z,5.60
2022-09-10T00:11:49.188Z,8.88
2022-09-10T00:14:21.399Z,7.70
2022-09-10T00:16:48.630Z,8.35
2022-09-10T00:19:15.866Z,5.72
2022-09-10T00:21:44.274Z,5.68
2022-09-10T00:24:11.091Z,5.53
2022-09-10T00:26:39.639Z,8.27
2022-09-10T00:29:11.251Z,5.25
2022-09-10T00:31:38.421Z,7.68
2022-09-10T00:34:06.423Z,7.65
2022-09-10T00:36:39.834Z,5.72
2022-09-10T00:39:09.378Z,8.27
2022-09-10T00:41:37.638Z,5.93
2022-09-10T00:44:07.410Z,6.38
2022-09-10T00:46:39.425Z,8.93
2022-09-10T00:49:13.027Z,7.22
2022-09-10T00:51:40.514Z,8.40
2022-09-10T00:54:07.875Z,7.47
2022-09-10T00:56:35.022Z,6.05
2022-09-10T00:59:03.249Z,4.05
2022-09-10T01:01:31.126Z,8.75
2022-09-10T01:03:58.806Z,7.82
2022-09-10T01:06:25.437Z,13.15
2022-09-10T01:08:52.535Z,6.43
2022-09-10T01:11:43.347Z,5.43
2022-09-10T01:14:35.797Z,8.00
2022-09-10T01:17:14.168Z,5.47
2022-09-10T01:19:56.844Z,4.82
2022-09-10T01:22:32.436Z,7.97
2022-09-10T01:25:22.596Z,4.68
2022-09-10T01:27:51.148Z,4.60
2022-09-10T01:30:22.001Z,6.35
2022-09-10T01:33:09.135Z,4.70
2022-09-10T01:35:52.192Z,10.50
2022-09-10T01:38:27.470Z,3.10
2022-09-10T01:40:56.057Z,6.65
2022-09-10T01:43:25.020Z,4.60
2022-09-10T01:46:25.229Z,4.82
2022-09-10T01:49:01.630Z,8.02
2022-09-10T01:51:56.668Z,7.70
2022-09-10T01:55:06.004Z,6.45
2022-09-10T01:57:52.804Z,4.00
2022-09-10T02:00:21.962Z,5.85
2022-09-10T02:02:51.016Z,6.40
2022-09-10T02:05:19.855Z,4.70
2022-09-10T02:07:56.331Z,6.95
2022-09-10T02:10:23.750Z,6.88
2022-09-10T02:12:50.628Z,5.85
2022-09-10T02:15:37.971Z,5.78
2022-09-10T02:18:32.847Z,5.70
2022-09-10T02:21:02.813Z,6.07
2022-09-10T02:23:41.329Z,10.30
2022-09-10T02:26:08.981Z,5.53
2022-09-10T02:28:37.216Z,6.85
2022-09-10T02:31:03.898Z,6.93
2022-09-10T02:33:31.422Z,9.20
2022-09-10T02:35:58.598Z,7.93
2022-09-10T02:38:25.255Z,4.93
2022-09-10T02:40:55.618Z,5.88
2022-09-10T02:43:23.730Z,4.97
2022-09-10T02:45:50.928Z,6.85
2022-09-10T02:48:19.105Z,6.85
2022-09-10T02:50:46.268Z,7.18
2022-09-10T02:53:13.898Z,18.98
2022-09-10T02:55:40.736Z,6.95
2022-09-10T02:58:07.452Z,5.10
2022-09-10T03:00:34.111Z,5.68
2022-09-10T03:03:03.215Z,6.60
2022-09-10T03:05:30.111Z,7.75
2022-09-10T03:07:57.443Z,4.30
2022-09-10T03:10:27.340Z,3.92
2022-09-10T03:12:54.388Z,5.25
2022-09-10T03:15:21.055Z,5.72
2022-09-10T03:17:47.746Z,5.18
2022-09-10T03:20:14.680Z,7.70
2022-09-10T03:22:41.514Z,5.78
2022-09-10T03:25:11.694Z,3.65
2022-09-10T03:27:38.608Z,4.40
2022-09-10T03:30:08.406Z,5.03
2022-09-10T03:32:35.190Z,5.53
2022-09-10T03:35:01.855Z,5.22
2022-09-10T03:37:33.501Z,4.38
2022-09-10T03:40:02.252Z,8.98
2022-09-10T03:42:29.028Z,3.85
2022-09-10T03:44:56.711Z,10.80
2022-09-10T03:47:24.081Z,7.82
2022-09-10T03:49:50.865Z,8.68
2022-09-10T03:52:18.412Z,7.30
2022-09-10T03:54:45.632Z,9.20
2022-09-10T03:57:12.487Z,8.90
2022-09-10T03:59:41.197Z,9.02
2022-09-10T04:02:09.968Z,8.75
2022-09-10T04:04:42.937Z,7.65
2022-09-10T04:07:12.858Z,5.90
2022-09-10T04:09:39.559Z,5.40
2022-09-10T04:12:06.654Z,8.10
2022-09-10T04:14:35.165Z,10.48
2022-09-10T04:17:02.975Z,6.18
2022-09-10T04:19:31.028Z,6.90
2022-09-10T04:21:58.269Z,6.47
2022-09-10T04:24:25.763Z,10.70
2022-09-10T04:26:52.780Z,7.18
2022-09-10T04:29:22.364Z,8.88
2022-09-10T04:31:51.922Z,6.68
2022-09-10T04:34:25.550Z,10.65
2022-09-10T04:36:53.725Z,8.00
2022-09-10T04:39:23.220Z,9.45
2022-09-10T04:41:51.561Z,11.00
2022-09-10T04:44:20.200Z,11.68
2022-09-10T04:46:47.931Z,8.98
2022-09-10T04:49:15.402Z,10.80
2022-09-10T04:51:45.320Z,8.25
2022-09-10T04:54:14.970Z,8.63
2022-09-10T04:56:43.665Z,9.13
2022-09-10T04:59:10.916Z,7.05
2022-09-10T05:01:38.048Z,7.97
2022-09-10T05:04:05.305Z,5.57
2022-09-10T05:06:35.500Z,10.77
2022-09-10T05:09:04.250Z,7.32
2022-09-10T05:11:31.828Z,8.68
2022-09-10T05:13:58.559Z,6.03
2022-09-10T05:16:28.634Z,9.50
2022-09-10T05:18:56.226Z,9.32
2022-09-10T05:21:24.880Z,7.50
2022-09-10T05:23:53.907Z,7.18
2022-09-10T05:26:20.768Z,6.65
2022-09-10T05:28:47.959Z,8.38
2022-09-10T05:31:17.395Z,7.57
2022-09-10T05:33:46.320Z,6.85
2022-09-10T05:36:14.720Z,7.15
2022-09-10T05:38:42.853Z,7.70
2022-09-10T05:41:10.751Z,7.63
2022-09-10T05:43:42.041Z,7.93
2022-09-10T05:46:10.429Z,11.02
2022-09-10T05:48:41.799Z,8.18
2022-09-10T05:51:10.547Z,6.43
2022-09-10T05:53:38.296Z,8.63
2022-09-10T05:56:07.371Z,7.32
2022-09-10T05:58:35.425Z,8.02
2022-09-10T06:01:02.319Z,10.07
2022-09-10T06:03:30.150Z,8.38
2022-09-10T06:06:00.985Z,10.77
2022-09-10T06:08:32.534Z,11.85
2022-09-10T06:11:05.924Z,7.80
2022-09-10T06:13:45.768Z,10.27
2022-09-10T06:16:12.980Z,9.38
2022-09-10T06:18:41.179Z,8.80
2022-09-10T06:21:16.237Z,11.30
2022-09-10T06:23:45.982Z,7.70
2022-09-10T06:26:20.078Z,8.55
2022-09-10T06:28:49.876Z,7.38
2022-09-10T06:31:18.074Z,7.32
2022-09-10T06:33:45.311Z,11.77
2022-09-10T06:36:12.023Z,9.07
2022-09-10T06:38:40.680Z,11.50
2022-09-10T06:41:12.113Z,8.68
2022-09-10T06:43:43.816Z,14.23
2022-09-10T06:46:56.727Z,9.73
2022-09-10T06:49:11.370Z,8.10
2022-09-10T06:51:42.543Z,8.05
2022-09-10T06:54:10.255Z,8.18
2022-09-10T06:56:38.059Z,7.78
2022-09-10T06:59:05.160Z,10.40
2022-09-10T07:01:41.706Z,9.13
2022-09-10T07:04:09.361Z,7.57
2022-09-10T07:06:37.112Z,10.32
2022-09-10T07:09:09.288Z,7.80
2022-09-10T07:11:45.460Z,6.93
2022-09-10T07:14:13.982Z,9.95
2022-09-10T07:16:44.623Z,7.72
2022-09-10T07:19:20.041Z,10.95
2022-09-10T07:21:49.755Z,10.63
2022-09-10T07:24:16.924Z,7.60
2022-09-10T07:26:57.090Z,7.18
2022-09-10T07:29:24.213Z,9.85
2022-09-10T07:31:54.480Z,9.13
2022-09-10T07:34:25.101Z,9.70
2022-09-10T07:36:52.862Z,7.80
2022-09-10T07:39:25.494Z,5.55
2022-09-10T07:41:55.344Z,8.60
2022-09-10T07:44:28.328Z,7.82
2022-09-10T07:46:59.610Z,7.75
2022-09-10T07:49:27.915Z,7.60
2022-09-10T07:51:59.713Z,7.97
2022-09-10T07:54:30.438Z,6.10
2022-09-10T07:56:57.954Z,8.70
2022-09-10T07:59:26.693Z,7.10
2022-09-10T08:02:00.555Z,5.82
2022-09-10T08:04:36.555Z,8.68
2022-09-10T08:07:07.146Z,10.00
2022-09-10T08:09:36.723Z,10.63
2022-09-10T08:12:07.635Z,8.02
2022-09-10T08:14:34.702Z,6.15
2022-09-10T08:17:01.841Z,9.13
2022-09-10T08:19:29.849Z,5.82
2022-09-10T08:21:59.834Z,8.63
2022-09-10T08:24:31.818Z,5.82
2022-09-10T08:26:58.953Z,8.05
2022-09-10T08:29:26.314Z,5.05
2022-09-10T08:31:53.082Z,4.97
2022-09-10T08:34:26.300Z,5.43
2022-09-10T08:37:03.226Z,6.75
2022-09-10T08:39:31.796Z,4.95
2022-09-10T08:42:03.767Z,6.90
2022-09-10T08:44:50.194Z,6.15
2022-09-10T08:47:27.221Z,4.28
2022-09-10T08:50:04.166Z,5.95
2022-09-10T08:52:48.815Z,6.95
2022-09-10T08:55:22.754Z,6.32
2022-09-10T08:57:56.910Z,4.78
2022-09-10T09:00:31.618Z,7.50
2022-09-10T09:03:06.053Z,8.95
2022-09-10T09:05:48.032Z,8.68
2022-09-10T09:08:19.747Z,6.07
2022-09-10T09:11:07.167Z,5.32
2022-09-10T09:13:55.158Z,6.07
2022-09-10T09:16:41.381Z,5.93
2022-09-10T09:19:31.069Z,5.57
2022-09-10T09:22:12.681Z,8.32
2022-09-10T09:24:54.036Z,5.65
2022-09-10T09:27:22.018Z,5.32
2022-09-10T09:30:01.975Z,8.18
2022-09-10T09:32:37.820Z,5.68
2022-09-10T09:35:12.636Z,7.20
2022-09-10T09:37:41.861Z,8.77
2022-09-10T09:40:14.094Z,5.63
2022-09-10T09:43:08.996Z,5.43
2022-09-10T09:45:37.718Z,5.93
2022-09-10T09:48:08.673Z,14.05
2022-09-10T09:50:41.627Z,5.43
2022-09-10T09:53:09.974Z,6.75
2022-09-10T09:55:43.157Z,5.43
2022-09-10T09:58:21.900Z,6.32
2022-09-10T10:01:04.329Z,6.50
2022-09-10T10:03:33.705Z,4.60
2022-09-10T10:06:06.067Z,3.78
2022-09-10T10:08:43.622Z,4.72
2022-09-10T10:11:13.612Z,4.45
2022-09-10T10:13:45.863Z,7.32
2022-09-10T10:16:24.475Z,5.32
2022-09-10T10:18:51.199Z,9.43
2022-09-10T10:21:24.098Z,6.53
2022-09-10T10:23:50.813Z,5.75
2022-09-10T10:26:24.672Z,6.80
2022-09-10T10:28:54.560Z,5.88
2022-09-10T10:31:21.363Z,4.57
2022-09-10T10:34:02.023Z,5.93
2022-09-10T10:36:55.483Z,4.93
2022-09-10T10:39:26.135Z,7.93
2022-09-10T10:42:26.451Z,7.85
2022-09-10T10:45:21.831Z,5.45
2022-09-10T10:48:10.591Z,6.75
2022-09-10T10:50:56.029Z,5.40
2022-09-10T10:53:28.913Z,6.65
2022-09-10T10:56:17.569Z,7.18
2022-09-10T10:59:04.490Z,8.05
2022-09-10T11:01:37.515Z,7.78
2022-09-10T11:04:20.519Z,6.63
2022-09-10T11:06:56.141Z,8.52
2022-09-10T11:09:27.561Z,9.07
2022-09-10T11:12:25.133Z,6.82
2022-09-10T11:15:18.156Z,7.88
2022-09-10T11:17:51.876Z,11.07
2022-09-10T11:20:29.121Z,7.47
2022-09-10T11:23:09.149Z,10.95
2022-09-10T11:25:55.084Z,9.73
2022-09-10T11:28:25.727Z,10.90
2022-09-10T11:31:02.863Z,12.38
2022-09-10T11:33:35.387Z,12.52
2022-09-10T11:36:02.715Z,7.30
2022-09-10T11:38:29.301Z,10.50
2022-09-10T11:41:09.887Z,6.63
2022-09-10T11:43:54.824Z,14.32
2022-09-10T11:46:26.200Z,7.88
2022-09-10T11:49:03.606Z,7.60
2022-09-10T11:51:37.053Z,8.88
2022-09-10T11:54:07.334Z,9.23
2022-09-10T11:56:43.023Z,7.43
2022-09-10T11:59:34.997Z,9.43
2022-09-10T12:02:24.245Z,8.10
2022-09-10T12:04:50.964Z,8.05
2022-09-10T12:07:49.153Z,5.88
2022-09-10T12:10:31.823Z,7.03
2022-09-10T12:12:59.559Z,8.80
2022-09-10T12:15:31.333Z,5.97
2022-09-10T12:18:14.001Z,6.30
2022-09-10T12:20:58.169Z,7.82
2022-09-10T12:26:43.095Z,5.47
2022-09-10T12:29:27.947Z,6.95
2022-09-10T12:32:21.897Z,8.88
2022-09-10T12:35:26.938Z,7.28
2022-09-10T12:38:32.722Z,9.25
2022-09-10T12:40:59.763Z,6.90
2022-09-10T12:43:41.634Z,10.05
2022-09-10T12:46:14.571Z,6.78
2022-09-10T12:49:09.631Z,8.55
2022-09-10T12:51:51.684Z,6.15
2022-09-10T12:54:29.891Z,8.13
2022-09-10T12:57:29.999Z,13.25
2022-09-10T13:00:19.988Z,6.50
2022-09-10T13:02:53.963Z,7.30
2022-09-10T13:05:29.742Z,8.68
2022-09-10T13:08:13.312Z,6.65
2022-09-10T13:10:45.878Z,7.95
2022-09-10T13:13:37.616Z,10.10
2022-09-10T13:16:06.125Z,10.18
2022-09-10T13:18:38.529Z,8.38
2022-09-10T13:21:23.872Z,13.73
2022-09-10T13:23:51.918Z,10.25
2022-09-10T13:26:47.689Z,13.10
2022-09-10T13:29:29.958Z,13.02
2022-09-10T13:32:04.702Z,13.20
2022-09-10T13:35:08.743Z,16.95
2022-09-10T13:38:21.950Z,18.83
2022-09-10T13:41:15.451Z,18.20
2022-09-10T13:43:48.836Z,15.65
2022-09-10T13:46:28.425Z,16.50
2022-09-10T13:49:26.500Z,15.98
2022-09-10T13:51:58.604Z,14.23
2022-09-10T13:54:36.236Z,14.18
2022-09-10T13:57:20.822Z,14.15
2022-09-10T13:59:50.316Z,18.80
2022-09-10T14:02:19.811Z,14.20
2022-09-10T14:04:46.916Z,12.50
2022-09-10T14:07:23.034Z,12.38
2022-09-10T14:10:01.410Z,13.13
2022-09-10T14:12:30.038Z,14.00
2022-09-10T14:15:00.107Z,15.43
2022-09-10T14:17:31.972Z,13.27
2022-09-10T14:20:03.218Z,14.38
2022-09-10T14:22:39.781Z,13.90
2022-09-10T14:25:31.340Z,13.20
2022-09-10T14:28:20.517Z,14.02
2022-09-10T14:30:51.249Z,14.13
2022-09-10T14:33:37.583Z,15.55
2022-09-10T14:36:17.354Z,14.15
2022-09-10T14:38:45.440Z,15.25
2022-09-10T14:41:19.970Z,15.68
2022-09-10T14:43:48.741Z,17.17
2022-09-10T14:46:49.626Z,18.08
2022-09-10T14:52:18.968Z,14.57
2022-09-10T14:54:45.714Z,15.45
2022-09-10T14:57:14.946Z,14.70
2022-09-10T14:59:43.350Z,16.15
2022-09-10T15:02:28.531Z,14.52
2022-09-10T15:07:43.146Z,17.17
2022-09-10T15:10:10.243Z,16.02
2022-09-10T15:12:42.104Z,16.52
2022-09-10T15:15:18.300Z,14.50
2022-09-10T15:17:45.893Z,14.00
2022-09-10T15:20:27.846Z,14.88
2022-09-10T15:22:55.805Z,14.55
2022-09-10T15:25:28.888Z,47.92
2022-09-10T15:27:56.294Z,24.58
2022-09-10T15:30:25.722Z,34.75
2022-09-10T15:32:54.394Z,17.08
2022-09-10T15:35:24.934Z,17.08
2022-09-10T15:41:17.015Z,15.80
2022-09-10T15:43:45.724Z,17.02
2022-09-10T15:46:15.933Z,14.85
2022-09-10T15:48:43.406Z,21.67
2022-09-10T15:51:22.734Z,18.20
2022-09-10T15:54:05.351Z,15.02
2022-09-10T15:56:33.754Z,18.15
2022-09-10T15:59:02.032Z,16.30
2022-09-10T16:01:29.226Z,14.82
2022-09-10T16:03:58.395Z,13.02
2022-09-10T16:06:28.259Z,13.05
2022-09-10T16:08:57.029Z,12.65
2022-09-10T16:11:25.249Z,12.25
2022-09-10T16:13:52.346Z,11.25
2022-09-10T16:16:21.155Z,10.90
2022-09-10T16:18:49.499Z,12.57
2022-09-10T16:21:22.883Z,13.98
2022-09-10T16:23:50.758Z,15.82
2022-09-10T16:26:20.298Z,15.50
2022-09-10T16:28:59.073Z,13.73
2022-09-10T16:31:34.320Z,14.88
2022-09-10T16:36:51.823Z,13.05
2022-09-10T16:39:19.974Z,14.15
2022-09-10T16:41:48.465Z,19.73
2022-09-10T16:44:17.477Z,16.08
2022-09-10T16:46:45.072Z,15.77
2022-09-10T16:49:13.987Z,12.65
2022-09-10T16:51:42.378Z,13.30
2022-09-10T16:54:10.030Z,15.43
2022-09-10T16:56:45.205Z,12.65
2022-09-10T16:59:22.118Z,17.30
2022-09-10T17:01:50.346Z,14.18
2022-09-10T17:04:28.341Z,16.50
2022-09-10T17:07:00.623Z,16.05
2022-09-10T17:09:27.434Z,15.90
2022-09-10T17:11:54.287Z,17.45
2022-09-10T17:14:21.082Z,15.68
2022-09-10T17:16:48.763Z,19.45
2022-09-10T17:19:18.548Z,18.17
2022-09-10T17:21:55.126Z,19.13
2022-09-10T17:24:26.477Z,18.65
2022-09-10T17:26:55.167Z,17.65
2022-09-10T17:29:24.617Z,17.67
2022-09-10T17:31:56.900Z,16.95
2022-09-10T17:34:24.562Z,18.52
2022-09-10T17:36:51.758Z,22.00
2022-09-10T17:39:19.684Z,20.65
2022-09-10T17:41:47.741Z,24.02
2022-09-10T17:44:16.640Z,19.63
2022-09-10T17:46:43.360Z,20.75
2022-09-10T17:49:17.221Z,21.25
2022-09-10T17:51:44.079Z,20.27
2022-09-10T17:54:11.104Z,28.45
2022-09-10T17:56:41.811Z,22.17
2022-09-10T17:59:14.828Z,26.63
2022-09-10T18:01:43.270Z,26.27
2022-09-10T18:04:14.410Z,30.02
2022-09-10T18:06:41.314Z,24.50
2022-09-10T18:09:08.562Z,30.60
2022-09-10T18:11:38.828Z,27.33
2022-09-10T18:14:05.632Z,27.77
2022-09-10T18:16:33.627Z,28.30
2022-09-10T18:19:05.018Z,29.70
2022-09-10T18:21:35.397Z,25.77
2022-09-10T18:24:09.295Z,29.02
2022-09-10T18:26:38.297Z,26.35
2022-09-10T18:29:06.732Z,27.38
2022-09-10T18:31:39.502Z,27.40
2022-09-10T18:34:09.841Z,29.90
2022-09-10T18:36:37.068Z,29.10
2022-09-10T18:39:10.644Z,27.45
2022-09-10T18:41:38.583Z,25.95
2022-09-10T18:44:20.796Z,30.90
2022-09-10T18:46:49.059Z,30.05
2022-09-10T18:49:21.439Z,34.38
2022-09-10T18:51:49.528Z,28.77
2022-09-10T18:54:18.509Z,28.17
2022-09-10T18:56:48.842Z,30.42
2022-09-10T18:59:20.217Z,29.73
2022-09-10T19:01:48.113Z,28.33
2022-09-10T19:04:18.062Z,30.02
2022-09-10T19:06:46.825Z,33.05
2022-09-10T19:09:24.062Z,29.48
2022-09-10T19:11:53.149Z,29.60
2022-09-10T19:14:42.398Z,31.60
2022-09-10T19:17:15.840Z,31.63
2022-09-10T19:19:45.974Z,29.38
2022-09-10T19:22:13.402Z,33.05
2022-09-10T19:24:58.191Z,31.35
2022-09-10T19:27:26.952Z,28.38
2022-09-10T19:29:53.723Z,36.08
2022-09-10T19:32:21.302Z,33.75
2022-09-10T19:34:51.479Z,32.58
2022-09-10T19:37:19.789Z,34.83
2022-09-10T19:39:49.357Z,33.10
2022-09-10T19:42:16.562Z,33.40
2022-09-10T19:44:46.290Z,33.75
2022-09-10T19:47:13.542Z,36.20
2022-09-10T19:49:40.293Z,31.58
2022-09-10T19:52:07.237Z,30.77
2022-09-10T19:54:34.149Z,34.47
2022-09-10T19:57:00.805Z,34.55
2022-09-10T19:59:28.161Z,29.92
2022-09-10T20:01:55.296Z,36.20
2022-09-10T20:04:37.403Z,35.58
2022-09-10T20:07:04.086Z,33.15
2022-09-10T20:09:31.557Z,35.40
2022-09-10T20:11:58.232Z,33.13
2022-09-10T20:14:26.886Z,39.22
2022-09-10T20:16:54.756Z,33.05
2022-09-10T20:19:22.088Z,35.15
2022-09-10T20:21:49.170Z,34.33
2022-09-10T20:24:16.559Z,34.63
2022-09-10T20:26:43.907Z,34.53
2022-09-10T20:29:13.806Z,34.20
2022-09-10T20:31:41.689Z,36.40
2022-09-10T20:37:00.979Z,37.47
2022-09-10T20:39:27.744Z,40.85
2022-09-10T20:41:56.074Z,37.25
2022-09-10T20:44:23.053Z,39.40
2022-09-10T20:46:49.892Z,32.10
2022-09-10T20:49:17.514Z,33.08
2022-09-10T20:51:45.249Z,32.90
2022-09-10T20:54:15.451Z,32.90
2022-09-10T20:56:42.773Z,30.38
2022-09-10T20:59:12.447Z,36.83
2022-09-10T21:01:41.072Z,35.90
2022-09-10T21:04:10.429Z,33.63
2022-09-10T21:06:40.145Z,40.40
2022-09-10T21:09:06.848Z,36.08
2022-09-10T21:11:34.892Z,39.13
2022-09-10T21:14:03.653Z,41.63
2022-09-10T21:16:34.046Z,35.85
2022-09-10T21:19:03.591Z,40.30
2022-09-10T21:21:34.587Z,39.30
2022-09-10T21:24:11.170Z,36.60
2022-09-10T21:26:40.989Z,40.08
2022-09-10T21:29:10.933Z,36.63
2022-09-10T21:31:41.564Z,38.45
2022-09-10T21:36:51.361Z,40.63
2022-09-10T21:39:18.278Z,41.40
2022-09-10T21:41:47.145Z,36.58
2022-09-10T21:44:15.833Z,39.70
2022-09-10T21:46:44.994Z,43.08
2022-09-10T21:49:12.995Z,44.75
2022-09-10T21:51:41.785Z,50.90
2022-09-10T21:54:20.884Z,39.63
2022-09-10T21:56:49.950Z,39.40
2022-09-10T21:59:16.955Z,41.28
2022-09-10T22:01:45.246Z,36.53
2022-09-10T22:04:13.591Z,44.67
2022-09-10T22:06:40.490Z,38.50
2022-09-10T22:09:14.743Z,44.35
2022-09-10T22:11:45.698Z,38.95
2022-09-10T22:14:27.564Z,37.10
2022-09-10T22:16:57.627Z,40.60
2022-09-10T22:19:26.163Z,41.30
2022-09-10T22:21:57.329Z,43.40
2022-09-10T22:24:24.317Z,40.13
2022-09-10T22:26:50.961Z,37.53
2022-09-10T22:29:19.122Z,38.55
2022-09-10T22:31:47.375Z,33.25
2022-09-10T22:34:16.179Z,38.75
2022-09-10T22:36:44.311Z,45.95
2022-09-10T22:39:16.503Z,38.63
2022-09-10T22:41:44.096Z,45.20
2022-09-10T22:44:10.942Z,36.58
2022-09-10T22:46:38.551Z,37.38
2022-09-10T22:49:06.424Z,42.17
2022-09-10T22:51:36.166Z,35.55
2022-09-10T22:54:04.622Z,34.45
2022-09-10T22:56:31.501Z,34.13
2022-09-10T22:58:59.243Z,35.38
2022-09-10T23:01:34.174Z,35.70
2022-09-10T23:04:02.375Z,38.05
2022-09-10T23:06:31.407Z,33.95
2022-09-10T23:09:04.222Z,30.40
2022-09-10T23:11:32.527Z,32.55
2022-09-10T23:14:01.796Z,35.90
2022-09-10T23:16:31.741Z,36.00
2022-09-10T23:19:00.339Z,34.88
2022-09-10T23:21:28.668Z,30.85
2022-09-10T23:24:00.417Z,29.85
2022-09-10T23:26:27.638Z,30.42
2022-09-10T23:28:56.583Z,35.40
2022-09-10T23:31:26.103Z,31.63
2022-09-10T23:33:59.090Z,32.03
2022-09-10T23:36:31.392Z,33.05
2022-09-10T23:39:02.442Z,29.25
2022-09-10T23:41:29.938Z,39.67
2022-09-10T23:43:57.235Z,35.90
2022-09-10T23:46:24.173Z,31.52
2022-09-10T23:48:51.695Z,31.02
2022-09-10T23:51:20.559Z,84.53
2022-09-10T23:53:48.739Z,35.80
2022-09-10T23:56:17.760Z,33.40
2022-09-10T23:58:44.582Z,33.70
